createdAt,value
2019-05-19T00:01:00.236Z,97.40
2019-05-19T00:03:27.436Z,97.40
2019-05-19T00:05:54.632Z,97.30
2019-05-19T00:08:21.836Z,97.40
2019-05-19T00:10:49.012Z,97.30
2019-05-19T00:13:16.206Z,97.30
2019-05-19T00:15:43.405Z,97.30
2019-05-19T00:18:10.660Z,97.50
2019-05-19T00:20:37.853Z,97.40
2019-05-19T00:23:05.052Z,97.30
2019-05-19T00:25:33.017Z,97.40
2019-05-19T00:28:00.292Z,97.30
2019-05-19T00:30:27.509Z,97.50
2019-05-19T00:32:54.781Z,97.40
2019-05-19T00:35:22.033Z,97.60
2019-05-19T00:37:49.309Z,97.90
2019-05-19T00:40:16.501Z,97.90
2019-05-19T00:42:43.696Z,98.10
2019-05-19T00:45:11.087Z,98.10
2019-05-19T00:47:38.584Z,98.10
2019-05-19T00:50:06.837Z,98.70
2019-05-19T00:52:34.124Z,99.10
2019-05-19T00:55:01.321Z,98.90
2019-05-19T00:57:29.101Z,98.80
2019-05-19T00:59:56.708Z,98.60
2019-05-19T01:02:23.885Z,98.40
2019-05-19T01:04:51.081Z,98.40
2019-05-19T01:07:18.576Z,98.00
2019-05-19T01:09:45.768Z,98.10
2019-05-19T01:12:12.950Z,98.10
2019-05-19T01:14:40.141Z,98.10
2019-05-19T01:17:07.310Z,98.00
2019-05-19T01:19:34.500Z,98.10
2019-05-19T01:22:01.792Z,98.00
2019-05-19T01:24:28.977Z,97.80
2019-05-19T01:26:56.285Z,97.50
2019-05-19T01:29:25.393Z,97.10
2019-05-19T01:31:52.680Z,96.90
2019-05-19T01:34:19.873Z,97.00
2019-05-19T01:36:47.076Z,96.90
2019-05-19T01:39:14.268Z,96.90
2019-05-19T01:41:41.452Z,97.10
2019-05-19T01:44:08.631Z,97.50
2019-05-19T01:46:35.837Z,97.80
2019-05-19T01:49:03.113Z,97.80
2019-05-19T01:51:30.308Z,97.50
2019-05-19T01:53:57.512Z,98.00
2019-05-19T01:56:24.741Z,98.00
2019-05-19T01:58:51.929Z,98.00
2019-05-19T02:01:19.130Z,98.00
2019-05-19T02:03:46.316Z,98.10
2019-05-19T02:06:13.503Z,98.30
2019-05-19T02:08:40.706Z,98.70
2019-05-19T02:11:07.900Z,99.00
2019-05-19T02:13:35.296Z,99.10
2019-05-19T02:16:02.470Z,98.90
2019-05-19T02:18:31.553Z,98.80
2019-05-19T02:20:58.747Z,98.80
2019-05-19T02:23:25.948Z,98.90
2019-05-19T02:25:53.168Z,99.00
2019-05-19T02:28:20.354Z,99.00
2019-05-19T02:30:47.621Z,98.90
2019-05-19T02:33:14.864Z,99.00
2019-05-19T02:35:42.104Z,98.90
2019-05-19T02:38:09.309Z,99.00
2019-05-19T02:40:39.299Z,99.00
2019-05-19T02:43:07.385Z,98.90
2019-05-19T02:45:35.465Z,98.70
2019-05-19T02:48:02.855Z,98.60
2019-05-19T02:50:31.155Z,98.70
2019-05-19T02:52:59.767Z,98.60
2019-05-19T02:55:27.763Z,98.50
2019-05-19T02:57:55.453Z,98.50
2019-05-19T03:00:36.903Z,98.40
2019-05-19T03:03:04.852Z,98.40
2019-05-19T03:05:32.029Z,98.30
2019-05-19T03:07:59.120Z,98.20
2019-05-19T03:10:26.318Z,98.10
2019-05-19T03:12:53.531Z,98.00
2019-05-19T03:15:20.830Z,98.30
2019-05-19T03:17:48.023Z,98.00
2019-05-19T03:20:15.189Z,97.90
2019-05-19T03:22:42.380Z,97.80
2019-05-19T03:25:09.572Z,98.40
2019-05-19T03:27:36.781Z,99.10
2019-05-19T03:30:22.378Z,98.90
2019-05-19T03:32:54.006Z,98.90
2019-05-19T03:35:21.226Z,99.00
2019-05-19T03:37:48.422Z,99.00
2019-05-19T03:40:21.624Z,99.00
2019-05-19T03:42:50.189Z,98.80
2019-05-19T03:45:17.385Z,98.90
2019-05-19T03:47:44.601Z,98.70
2019-05-19T03:50:11.804Z,98.80
2019-05-19T03:52:38.984Z,99.00
2019-05-19T03:55:06.205Z,99.00
2019-05-19T03:57:33.392Z,98.80
2019-05-19T04:00:00.583Z,98.70
2019-05-19T04:02:27.762Z,98.70
2019-05-19T04:04:54.957Z,98.60
2019-05-19T04:07:22.137Z,98.80
2019-05-19T04:09:51.162Z,98.80
2019-05-19T04:12:18.430Z,98.90
2019-05-19T04:14:45.618Z,99.00
2019-05-19T04:17:12.806Z,99.10
2019-05-19T04:19:40.010Z,99.20
2019-05-19T04:22:07.196Z,99.20
2019-05-19T04:24:38.168Z,99.30
2019-05-19T04:27:05.365Z,99.20
2019-05-19T04:29:32.538Z,99.40
2019-05-19T04:31:59.725Z,99.50
2019-05-19T04:34:26.945Z,99.40
2019-05-19T04:36:54.537Z,99.20
2019-05-19T04:39:21.723Z,99.40
2019-05-19T04:41:48.938Z,99.50
2019-05-19T04:44:16.124Z,99.60
2019-05-19T04:46:43.341Z,99.70
2019-05-19T04:49:10.548Z,99.60
2019-05-19T04:51:37.716Z,99.60
2019-05-19T04:54:04.904Z,99.80
2019-05-19T04:56:32.109Z,99.60
2019-05-19T04:58:59.403Z,99.60
2019-05-19T05:01:26.597Z,99.20
2019-05-19T05:03:53.789Z,98.90
2019-05-19T05:06:21.063Z,98.60
2019-05-19T05:08:48.257Z,98.60
2019-05-19T05:11:15.441Z,98.60
2019-05-19T05:13:44.153Z,98.40
2019-05-19T05:16:11.344Z,98.40
2019-05-19T05:18:38.550Z,98.80
2019-05-19T05:21:05.721Z,98.20
2019-05-19T05:23:32.916Z,98.30
2019-05-19T05:26:00.148Z,98.20
2019-05-19T05:28:27.349Z,98.30
2019-05-19T05:30:54.552Z,98.00
2019-05-19T05:33:21.748Z,98.00
2019-05-19T05:35:48.920Z,97.80
2019-05-19T05:38:16.148Z,97.80
2019-05-19T05:40:43.444Z,98.00
2019-05-19T05:43:10.649Z,97.80
2019-05-19T05:45:37.852Z,97.90
2019-05-19T05:48:05.081Z,97.80
2019-05-19T05:50:32.246Z,97.80
2019-05-19T05:52:59.447Z,98.10
2019-05-19T05:55:26.648Z,97.70
2019-05-19T05:57:53.873Z,97.80
2019-05-19T06:00:22.965Z,98.00
2019-05-19T06:02:50.171Z,98.00
2019-05-19T06:05:17.510Z,97.80
2019-05-19T06:07:44.649Z,97.90
2019-05-19T06:10:12.026Z,97.80
2019-05-19T06:12:39.224Z,97.50
2019-05-19T06:15:06.959Z,97.70
2019-05-19T06:17:34.237Z,97.50
2019-05-19T06:20:01.425Z,97.80
2019-05-19T06:22:28.722Z,97.60
2019-05-19T06:24:58.989Z,97.60
2019-05-19T06:27:25.006Z,97.80
2019-05-19T06:29:52.206Z,97.90
2019-05-19T06:32:29.257Z,97.80
2019-05-19T06:34:56.434Z,98.00
2019-05-19T06:37:23.632Z,98.10
2019-05-19T06:39:50.856Z,97.80
2019-05-19T06:42:18.056Z,97.80
2019-05-19T06:44:45.235Z,97.30
2019-05-19T06:47:12.421Z,97.60
2019-05-19T06:49:39.620Z,97.40
2019-05-19T06:52:06.791Z,97.70
2019-05-19T06:54:34.112Z,97.20
2019-05-19T06:57:01.285Z,96.90
2019-05-19T06:59:29.288Z,96.40
2019-05-19T07:01:56.489Z,95.50
2019-05-19T07:04:23.671Z,95.70
2019-05-19T07:06:50.892Z,96.10
2019-05-19T07:09:18.169Z,95.60
2019-05-19T07:11:45.396Z,95.10
2019-05-19T07:14:12.631Z,95.60
2019-05-19T07:16:39.908Z,95.70
2019-05-19T07:19:07.100Z,95.90
2019-05-19T07:21:34.325Z,95.80
2019-05-19T07:24:01.509Z,95.70
2019-05-19T07:26:28.709Z,95.90
2019-05-19T07:28:58.875Z,95.80
2019-05-19T07:31:25.005Z,95.70
2019-05-19T07:33:52.180Z,95.70
2019-05-19T07:36:19.384Z,95.60
2019-05-19T07:38:46.665Z,95.50
2019-05-19T07:41:13.892Z,95.50
2019-05-19T07:43:41.077Z,95.80
2019-05-19T07:46:08.280Z,95.30
2019-05-19T07:48:35.458Z,95.70
2019-05-19T07:51:02.723Z,95.30
2019-05-19T07:53:42.198Z,95.30
2019-05-19T07:55:59.168Z,94.90
2019-05-19T07:58:26.741Z,94.90
2019-05-19T08:00:53.936Z,94.40
2019-05-19T08:03:21.151Z,94.80
2019-05-19T08:05:48.320Z,94.90
2019-05-19T08:08:15.535Z,94.70
2019-05-19T08:10:42.869Z,94.60
2019-05-19T08:13:10.117Z,94.60
2019-05-19T08:15:37.320Z,94.10
2019-05-19T08:18:04.501Z,94.10
2019-05-19T08:20:31.790Z,94.20
2019-05-19T08:22:58.880Z,94.40
2019-05-19T08:25:26.078Z,94.00
2019-05-19T08:27:53.284Z,94.10
2019-05-19T08:30:20.772Z,94.00
2019-05-19T08:32:47.944Z,93.80
2019-05-19T08:35:15.748Z,93.90
2019-05-19T08:37:42.950Z,93.60
2019-05-19T08:40:10.138Z,93.70
2019-05-19T08:42:37.344Z,93.40
2019-05-19T08:45:04.994Z,93.10
2019-05-19T08:47:32.192Z,92.90
2019-05-19T08:49:59.415Z,92.40
2019-05-19T08:52:26.614Z,91.20
2019-05-19T08:54:53.908Z,91.80
2019-05-19T08:57:21.392Z,91.30
2019-05-19T08:59:48.583Z,91.40
2019-05-19T09:02:15.776Z,92.20
2019-05-19T09:04:42.973Z,91.70
2019-05-19T09:07:10.178Z,91.90
2019-05-19T09:09:37.795Z,92.50
2019-05-19T09:12:05.028Z,92.40
2019-05-19T09:14:32.894Z,91.20
2019-05-19T09:17:00.403Z,91.00
2019-05-19T09:19:27.897Z,91.30
2019-05-19T09:21:55.080Z,92.30
2019-05-19T09:24:29.950Z,92.00
2019-05-19T09:26:51.396Z,91.40
2019-05-19T09:29:18.657Z,90.60
2019-05-19T09:31:45.865Z,91.00
2019-05-19T09:34:13.080Z,90.90
2019-05-19T09:36:40.271Z,91.60
2019-05-19T09:39:07.436Z,91.60
2019-05-19T09:41:34.684Z,91.60
2019-05-19T09:44:01.977Z,92.20
2019-05-19T09:46:29.167Z,90.90
2019-05-19T09:49:14.460Z,92.10
2019-05-19T09:51:41.640Z,92.30
2019-05-19T09:54:08.829Z,92.30
2019-05-19T09:56:36.010Z,92.20
2019-05-19T09:59:03.295Z,91.50
2019-05-19T10:01:30.497Z,91.40
2019-05-19T10:03:57.504Z,92.00
2019-05-19T10:06:24.716Z,92.20
2019-05-19T10:08:59.713Z,91.60
2019-05-19T10:12:02.352Z,91.40
2019-05-19T10:14:29.665Z,91.70
2019-05-19T10:16:56.852Z,91.60
2019-05-19T10:19:24.048Z,91.70
2019-05-19T10:21:51.274Z,91.50
2019-05-19T10:24:18.598Z,91.40
2019-05-19T10:26:45.947Z,91.40
2019-05-19T10:29:13.141Z,90.50
2019-05-19T10:31:40.316Z,90.40
2019-05-19T10:34:07.504Z,89.00
2019-05-19T10:36:34.701Z,89.20
2019-05-19T10:39:01.905Z,89.30
2019-05-19T10:41:29.098Z,90.10
2019-05-19T10:44:00.814Z,89.60
2019-05-19T10:46:28.302Z,90.10
2019-05-19T10:48:55.588Z,89.70
2019-05-19T10:51:22.789Z,88.50
2019-05-19T10:53:49.968Z,88.40
2019-05-19T10:56:19.132Z,88.90
2019-05-19T10:58:46.303Z,88.80
2019-05-19T11:01:13.496Z,89.20
2019-05-19T11:03:40.701Z,90.30
2019-05-19T11:06:08.903Z,90.40
2019-05-19T11:08:36.088Z,90.50
2019-05-19T11:11:03.305Z,87.10
2019-05-19T11:13:30.571Z,87.80
2019-05-19T11:15:57.769Z,88.80
2019-05-19T11:18:24.976Z,89.50
2019-05-19T11:20:52.169Z,88.30
2019-05-19T11:23:19.373Z,89.10
2019-05-19T11:25:51.555Z,89.80
2019-05-19T11:28:15.729Z,86.80
2019-05-19T11:30:42.930Z,85.70
2019-05-19T11:33:10.117Z,85.60
2019-05-19T11:35:37.319Z,86.20
2019-05-19T11:38:04.500Z,86.30
2019-05-19T11:40:31.704Z,84.50
2019-05-19T11:42:58.884Z,83.70
2019-05-19T11:45:26.138Z,83.30
2019-05-19T11:47:53.332Z,84.90
2019-05-19T11:50:20.526Z,85.00
2019-05-19T11:52:47.717Z,85.80
2019-05-19T11:55:14.903Z,85.20
2019-05-19T11:57:42.109Z,83.80
2019-05-19T12:00:10.182Z,84.90
2019-05-19T12:02:37.376Z,84.00
2019-05-19T12:05:04.596Z,83.90
2019-05-19T12:07:31.785Z,77.60
2019-05-19T12:09:58.972Z,80.20
2019-05-19T12:12:26.177Z,81.20
2019-05-19T12:14:53.363Z,81.80
2019-05-19T12:17:20.553Z,83.50
2019-05-19T12:19:47.742Z,83.90
2019-05-19T12:22:15.124Z,84.40
2019-05-19T12:24:42.314Z,85.10
2019-05-19T12:27:09.639Z,86.30
2019-05-19T12:29:36.805Z,86.60
2019-05-19T12:32:03.998Z,87.10
2019-05-19T12:34:31.190Z,87.20
2019-05-19T12:36:58.377Z,86.40
2019-05-19T12:39:25.563Z,86.30
2019-05-19T12:41:52.891Z,86.90
2019-05-19T12:44:20.250Z,88.10
2019-05-19T12:46:48.340Z,88.20
2019-05-19T12:49:15.538Z,88.70
2019-05-19T12:51:42.779Z,89.00
2019-05-19T12:54:10.013Z,87.10
2019-05-19T12:56:40.102Z,86.60
2019-05-19T12:59:06.309Z,87.50
2019-05-19T13:01:33.526Z,85.90
2019-05-19T13:04:00.781Z,85.60
2019-05-19T13:06:27.957Z,86.80
2019-05-19T13:08:55.156Z,87.70
2019-05-19T13:11:22.328Z,88.60
2019-05-19T13:13:49.536Z,87.40
2019-05-19T13:16:16.740Z,87.10
2019-05-19T13:18:43.932Z,87.80
2019-05-19T13:21:13.352Z,87.80
2019-05-19T13:23:40.546Z,87.30
2019-05-19T13:26:07.731Z,88.20
2019-05-19T13:28:35.036Z,86.90
2019-05-19T13:31:02.240Z,87.70
2019-05-19T13:33:29.461Z,87.20
2019-05-19T13:35:56.712Z,88.00
2019-05-19T13:38:23.908Z,87.80
2019-05-19T13:40:51.111Z,87.00
2019-05-19T13:43:18.297Z,87.60
2019-05-19T13:45:45.497Z,87.60
2019-05-19T13:48:12.719Z,87.30
2019-05-19T13:50:40.075Z,85.90
2019-05-19T13:53:07.244Z,87.40
2019-05-19T13:55:34.454Z,88.30
2019-05-19T13:58:03.545Z,86.70
2019-05-19T14:00:30.708Z,87.20
2019-05-19T14:02:57.900Z,85.30
2019-05-19T14:05:25.068Z,85.60
2019-05-19T14:07:52.253Z,87.10
2019-05-19T14:10:19.536Z,87.20
2019-05-19T14:12:46.721Z,87.20
2019-05-19T14:15:13.900Z,86.40
2019-05-19T14:17:41.104Z,87.30
2019-05-19T14:20:08.894Z,86.70
2019-05-19T14:22:36.160Z,87.00
2019-05-19T14:25:03.748Z,87.50
2019-05-19T14:27:31.163Z,86.80
2019-05-19T14:29:58.541Z,87.80
2019-05-19T14:32:25.772Z,88.60
2019-05-19T14:34:52.953Z,87.40
2019-05-19T14:37:20.193Z,87.20
2019-05-19T14:39:47.528Z,87.10
2019-05-19T14:42:34.340Z,86.30
2019-05-19T14:45:01.839Z,84.90
2019-05-19T14:47:29.033Z,85.60
2019-05-19T14:49:56.325Z,86.00
2019-05-19T14:52:23.520Z,86.90
2019-05-19T14:54:50.789Z,84.80
2019-05-19T14:57:17.995Z,85.80
2019-05-19T14:59:45.189Z,86.60
2019-05-19T15:02:12.385Z,86.20
2019-05-19T15:04:39.573Z,86.60
2019-05-19T15:07:06.774Z,86.60
2019-05-19T15:09:33.961Z,85.70
2019-05-19T15:12:01.181Z,84.70
2019-05-19T15:14:28.441Z,84.70
2019-05-19T15:16:55.629Z,84.80
2019-05-19T15:19:22.809Z,84.60
2019-05-19T15:21:50.017Z,84.40
2019-05-19T15:24:17.211Z,84.50
2019-05-19T15:26:44.404Z,84.40
2019-05-19T15:29:11.593Z,84.30
2019-05-19T15:31:38.789Z,85.20
2019-05-19T15:34:05.971Z,84.60
2019-05-19T15:36:33.196Z,86.40
2019-05-19T15:39:00.464Z,87.00
2019-05-19T15:41:27.805Z,86.80
2019-05-19T15:43:55.088Z,86.40
2019-05-19T15:46:22.284Z,86.20
2019-05-19T15:48:49.480Z,85.90
2019-05-19T15:51:28.036Z,87.50
2019-05-19T15:53:45.816Z,87.00
2019-05-19T15:56:13.009Z,84.70
2019-05-19T15:58:40.212Z,86.10
2019-05-19T16:01:07.381Z,87.00
2019-05-19T16:03:34.675Z,87.80
2019-05-19T16:06:01.898Z,88.10
2019-05-19T16:08:29.088Z,87.40
2019-05-19T16:10:56.280Z,86.60
2019-05-19T16:13:23.478Z,87.00
2019-05-19T16:15:50.754Z,87.20
2019-05-19T16:18:18.079Z,88.30
2019-05-19T16:20:45.348Z,88.50
2019-05-19T16:23:12.533Z,87.90
2019-05-19T16:25:39.719Z,88.90
2019-05-19T16:28:06.914Z,88.80
2019-05-19T16:30:34.089Z,92.40
2019-05-19T16:33:01.276Z,93.40
2019-05-19T16:35:28.481Z,94.60
2019-05-19T16:37:56.772Z,94.80
2019-05-19T16:40:23.952Z,94.70
2019-05-19T16:42:51.441Z,94.60
2019-05-19T16:45:18.977Z,94.20
2019-05-19T16:47:46.180Z,94.50
2019-05-19T16:50:13.480Z,94.70
2019-05-19T16:52:40.708Z,95.10
2019-05-19T16:55:36.460Z,95.20
2019-05-19T16:58:19.564Z,95.30
2019-05-19T17:00:32.873Z,94.90
2019-05-19T17:03:00.073Z,95.20
2019-05-19T17:05:27.276Z,95.20
2019-05-19T17:07:54.485Z,95.20
2019-05-19T17:10:21.685Z,95.10
2019-05-19T17:12:48.865Z,95.10
2019-05-19T17:15:16.164Z,95.30
2019-05-19T17:17:43.368Z,95.40
2019-05-19T17:20:11.235Z,95.30
2019-05-19T17:22:38.420Z,95.50
2019-05-19T17:25:06.160Z,95.50
2019-05-19T17:27:33.349Z,95.70
2019-05-19T17:30:00.540Z,95.40
2019-05-19T17:32:27.752Z,95.60
2019-05-19T17:34:54.954Z,95.80
2019-05-19T17:37:22.149Z,95.40
2019-05-19T17:39:49.351Z,95.70
2019-05-19T17:42:16.531Z,95.50
2019-05-19T17:44:43.712Z,95.40
2019-05-19T17:47:10.906Z,95.60
2019-05-19T17:49:38.102Z,95.70
2019-05-19T17:52:05.293Z,95.70
2019-05-19T17:54:32.513Z,95.70
2019-05-19T17:57:01.529Z,95.70
2019-05-19T17:59:29.538Z,95.80
2019-05-19T18:01:56.749Z,95.80
2019-05-19T18:04:23.918Z,95.80
2019-05-19T18:06:51.125Z,95.70
2019-05-19T18:09:18.348Z,95.70
2019-05-19T18:11:45.534Z,95.60
2019-05-19T18:14:12.726Z,95.50
2019-05-19T18:16:39.924Z,95.60
2019-05-19T18:19:07.388Z,95.50
2019-05-19T18:21:34.582Z,95.60
2019-05-19T18:24:02.269Z,95.80
2019-05-19T18:26:29.508Z,95.90
2019-05-19T18:28:56.804Z,95.90
2019-05-19T18:31:23.999Z,95.90
2019-05-19T18:33:51.204Z,95.90
2019-05-19T18:36:18.483Z,96.00
2019-05-19T18:38:45.676Z,96.10
2019-05-19T18:41:12.854Z,96.10
2019-05-19T18:43:40.048Z,96.10
2019-05-19T18:46:07.248Z,96.10
2019-05-19T18:48:34.428Z,96.10
2019-05-19T18:51:01.629Z,96.20
2019-05-19T18:53:28.910Z,96.50
2019-05-19T18:55:56.492Z,96.30
2019-05-19T18:58:24.022Z,96.30
2019-05-19T19:00:51.209Z,96.30
2019-05-19T19:03:18.401Z,96.60
2019-05-19T19:05:45.597Z,96.40
2019-05-19T19:08:12.793Z,96.60
2019-05-19T19:10:40.010Z,96.60
2019-05-19T19:13:07.286Z,96.60
2019-05-19T19:15:34.481Z,96.80
2019-05-19T19:18:01.768Z,96.80
2019-05-19T19:20:29.120Z,96.90
2019-05-19T19:22:56.320Z,97.00
2019-05-19T19:25:23.498Z,97.40
2019-05-19T19:27:50.702Z,97.20
2019-05-19T19:30:18.082Z,97.20
2019-05-19T19:32:45.271Z,97.20
2019-05-19T19:35:12.859Z,97.20
2019-05-19T19:37:40.061Z,97.20
2019-05-19T19:40:07.474Z,97.20
2019-05-19T19:42:34.669Z,97.30
2019-05-19T19:45:01.946Z,97.30
2019-05-19T19:47:29.313Z,97.30
2019-05-19T19:49:56.513Z,97.40
2019-05-19T19:52:23.721Z,97.50
2019-05-19T19:54:50.896Z,97.60
2019-05-19T19:57:18.118Z,97.70
2019-05-19T19:59:45.312Z,97.60
2019-05-19T20:02:12.515Z,97.80
2019-05-19T20:04:39.813Z,97.60
2019-05-19T20:07:07.113Z,97.70
2019-05-19T20:09:34.321Z,97.80
2019-05-19T20:12:01.521Z,98.00
2019-05-19T20:14:28.769Z,97.90
2019-05-19T20:16:55.940Z,98.00
2019-05-19T20:19:23.172Z,98.10
2019-05-19T20:21:50.445Z,98.10
2019-05-19T20:24:17.680Z,98.30
2019-05-19T20:26:45.125Z,98.30
2019-05-19T20:29:12.316Z,98.40
2019-05-19T20:31:39.501Z,98.50
2019-05-19T20:34:06.724Z,98.60
2019-05-19T20:36:33.936Z,98.60
2019-05-19T20:39:01.220Z,98.80
2019-05-19T20:41:28.424Z,98.80
2019-05-19T20:43:55.632Z,98.70
2019-05-19T20:46:22.816Z,98.90
2019-05-19T20:48:50.006Z,98.90
2019-05-19T20:51:17.196Z,99.00
2019-05-19T20:53:44.405Z,99.10
2019-05-19T20:56:11.616Z,99.10
2019-05-19T20:58:38.836Z,99.10
2019-05-19T21:01:06.023Z,99.10
2019-05-19T21:03:33.201Z,99.20
2019-05-19T21:06:00.389Z,99.20
2019-05-19T21:08:27.568Z,99.20
2019-05-19T21:10:54.750Z,99.20
2019-05-19T21:13:21.944Z,99.30
2019-05-19T21:15:49.121Z,99.10
2019-05-19T21:18:16.439Z,99.10
2019-05-19T21:20:43.630Z,99.00
2019-05-19T21:23:10.916Z,99.30
2019-05-19T21:25:38.084Z,99.20
2019-05-19T21:28:05.269Z,99.10
2019-05-19T21:30:32.451Z,99.00
2019-05-19T21:32:59.630Z,99.20
2019-05-19T21:35:26.823Z,99.10
2019-05-19T21:37:54.016Z,98.90
2019-05-19T21:40:21.240Z,99.10
2019-05-19T21:42:48.427Z,99.00
2019-05-19T21:45:15.608Z,99.10
2019-05-19T21:47:42.800Z,99.00
2019-05-19T21:50:10.197Z,99.00
2019-05-19T21:52:37.381Z,98.90
2019-05-19T21:55:05.396Z,99.10
2019-05-19T21:57:32.637Z,99.10
2019-05-19T21:59:59.925Z,98.90
2019-05-19T22:02:27.228Z,99.00
2019-05-19T22:04:54.444Z,99.00
2019-05-19T22:07:36.893Z,99.00
2019-05-19T22:10:04.207Z,98.90
2019-05-19T22:12:31.846Z,98.90
2019-05-19T22:14:59.030Z,99.00
2019-05-19T22:17:26.238Z,99.10
2019-05-19T22:19:53.404Z,99.00
2019-05-19T22:22:20.596Z,99.00
2019-05-19T22:24:47.794Z,98.90
2019-05-19T22:27:14.988Z,99.10
2019-05-19T22:29:42.164Z,99.10
2019-05-19T22:32:09.368Z,99.00
2019-05-19T22:34:36.540Z,99.00
2019-05-19T22:37:03.733Z,99.10
2019-05-19T22:39:30.932Z,99.20
2019-05-19T22:41:58.120Z,99.20
2019-05-19T22:44:25.304Z,99.10
2019-05-19T22:46:52.501Z,99.20
2019-05-19T22:49:19.672Z,99.20
2019-05-19T22:51:46.868Z,99.20
2019-05-19T22:54:14.052Z,99.20
2019-05-19T22:56:41.232Z,99.20
2019-05-19T22:59:19.410Z,99.40
2019-05-19T23:01:50.986Z,99.50
2019-05-19T23:04:06.640Z,99.60
2019-05-19T23:06:35.728Z,99.70
2019-05-19T23:09:05.168Z,99.60
2019-05-19T23:11:32.348Z,99.60
2019-05-19T23:13:59.732Z,99.60
2019-05-19T23:16:26.921Z,99.60
2019-05-19T23:18:54.114Z,99.60
2019-05-19T23:21:21.292Z,99.50
2019-05-19T23:23:48.496Z,99.40
2019-05-19T23:26:15.673Z,99.40
2019-05-19T23:28:42.881Z,99.30
2019-05-19T23:31:10.085Z,99.30
2019-05-19T23:33:37.272Z,99.30
2019-05-19T23:36:04.456Z,99.40
2019-05-19T23:38:32.169Z,99.30
2019-05-19T23:40:59.352Z,99.40
2019-05-19T23:43:26.563Z,99.40
2019-05-19T23:45:53.948Z,99.50
2019-05-19T23:48:21.136Z,99.60
2019-05-19T23:50:48.317Z,99.70
2019-05-19T23:53:15.500Z,99.70
2019-05-19T23:55:42.672Z,99.80
2019-05-19T23:58:09.864Z,99.80
